createdAt,value
2023-05-25T00:00:14.809Z,4.14
2023-05-25T00:01:14.910Z,3.45
2023-05-25T00:02:14.958Z,3.77
2023-05-25T00:03:15.164Z,4.42
2023-05-25T00:04:15.272Z,4.16
2023-05-25T00:05:15.183Z,3.83
2023-05-25T00:06:15.284Z,3.70
2023-05-25T00:07:15.380Z,3.93
2023-05-25T00:08:15.438Z,3.81
2023-05-25T00:09:15.558Z,3.83
2023-05-25T00:10:15.595Z,3.69
2023-05-25T00:11:15.648Z,3.37
2023-05-25T00:12:15.747Z,4.14
2023-05-25T00:13:15.788Z,4.01
2023-05-25T00:14:15.868Z,3.84
2023-05-25T00:15:15.915Z,4.20
2023-05-25T00:16:16.004Z,3.39
2023-05-25T00:17:16.087Z,4.00
2023-05-25T00:18:16.112Z,3.88
2023-05-25T00:19:16.730Z,4.27
2023-05-25T00:20:16.305Z,4.26
2023-05-25T00:21:16.379Z,4.37
2023-05-25T00:22:16.390Z,4.16
2023-05-25T00:23:16.421Z,3.99
2023-05-25T00:24:16.498Z,4.53
2023-05-25T00:25:16.586Z,4.13
2023-05-25T00:26:16.646Z,3.72
2023-05-25T00:27:16.718Z,3.90
2023-05-25T00:28:16.818Z,3.66
2023-05-25T00:29:16.846Z,3.80
2023-05-25T00:30:16.941Z,4.34
2023-05-25T00:31:17.055Z,4.12
2023-05-25T00:32:17.100Z,4.43
2023-05-25T00:33:17.139Z,4.19
2023-05-25T00:34:17.233Z,3.82
2023-05-25T00:35:17.285Z,3.82
2023-05-25T00:36:17.373Z,4.16
2023-05-25T00:37:17.501Z,4.51
2023-05-25T00:38:17.488Z,3.75
2023-05-25T00:39:17.583Z,4.20
2023-05-25T00:40:17.659Z,4.54
2023-05-25T00:41:17.719Z,3.93
2023-05-25T00:42:17.778Z,4.19
2023-05-25T00:43:17.878Z,4.24
2023-05-25T00:44:17.935Z,3.77
2023-05-25T00:45:18.036Z,3.85
2023-05-25T00:46:18.090Z,3.86
2023-05-25T00:47:18.158Z,4.58
2023-05-25T00:48:18.191Z,3.71
2023-05-25T00:49:18.258Z,4.04
2023-05-25T00:50:18.348Z,3.75
2023-05-25T00:51:18.421Z,3.55
2023-05-25T00:52:18.464Z,4.20
2023-05-25T00:53:18.515Z,4.30
2023-05-25T00:54:18.633Z,3.95
2023-05-25T00:55:18.702Z,3.77
2023-05-25T00:56:18.791Z,4.28
2023-05-25T00:57:18.855Z,3.77
2023-05-25T00:58:18.973Z,3.98
2023-05-25T00:59:18.997Z,4.38
2023-05-25T01:00:19.050Z,3.70
2023-05-25T01:01:19.206Z,3.99
2023-05-25T01:02:19.328Z,3.43
2023-05-25T01:03:19.366Z,3.75
2023-05-25T01:04:19.368Z,4.04
2023-05-25T01:05:19.442Z,3.70
2023-05-25T01:06:19.482Z,3.86
2023-05-25T01:07:19.530Z,4.19
2023-05-25T01:08:19.618Z,3.87
2023-05-25T01:09:19.683Z,3.55
2023-05-25T01:10:19.726Z,4.00
2023-05-25T01:11:19.867Z,4.05
2023-05-25T01:12:19.892Z,3.70
2023-05-25T01:13:19.951Z,4.34
2023-05-25T01:14:20.038Z,3.80
2023-05-25T01:15:20.109Z,4.14
2023-05-25T01:16:20.266Z,3.88
2023-05-25T01:17:20.294Z,3.44
2023-05-25T01:18:20.327Z,3.71
2023-05-25T01:19:20.362Z,4.01
2023-05-25T01:20:20.478Z,3.54
2023-05-25T01:21:20.543Z,4.36
2023-05-25T01:22:20.598Z,3.57
2023-05-25T01:23:20.681Z,3.49
2023-05-25T01:24:20.675Z,4.27
2023-05-25T01:25:20.766Z,3.71
2023-05-25T01:26:20.876Z,3.85
2023-05-25T01:27:20.919Z,4.07
2023-05-25T01:28:20.968Z,4.11
2023-05-25T01:29:21.029Z,3.85
2023-05-25T01:30:21.098Z,3.71
2023-05-25T01:31:21.169Z,3.57
2023-05-25T01:32:21.254Z,3.81
2023-05-25T01:33:21.264Z,3.66
2023-05-25T01:34:21.322Z,3.60
2023-05-25T01:35:21.384Z,3.51
2023-05-25T01:36:21.480Z,3.82
2023-05-25T01:37:21.543Z,2.65
2023-05-25T01:38:21.604Z,3.42
2023-05-25T01:39:21.662Z,3.59
2023-05-25T01:40:21.738Z,3.83
2023-05-25T01:41:21.809Z,3.85
2023-05-25T01:42:21.862Z,3.38
2023-05-25T01:43:21.990Z,3.32
2023-05-25T01:44:21.949Z,3.97
2023-05-25T01:45:22.055Z,3.86
2023-05-25T01:46:22.157Z,3.70
2023-05-25T01:47:22.233Z,3.59
2023-05-25T01:48:22.275Z,3.88
2023-05-25T01:49:22.354Z,3.87
2023-05-25T01:50:22.437Z,3.42
2023-05-25T01:51:22.512Z,3.43
2023-05-25T01:52:22.627Z,3.68
2023-05-25T01:53:22.620Z,4.00
2023-05-25T01:54:22.682Z,3.80
2023-05-25T01:55:22.778Z,3.87
2023-05-25T01:56:22.807Z,4.84
2023-05-25T01:57:22.891Z,4.06
2023-05-25T01:58:22.996Z,3.74
2023-05-25T01:59:23.085Z,4.06
2023-05-25T02:00:23.135Z,3.74
2023-05-25T02:01:23.277Z,3.78
2023-05-25T02:02:23.312Z,3.55
2023-05-25T02:03:23.345Z,3.58
2023-05-25T02:04:23.480Z,3.46
2023-05-25T02:05:23.473Z,3.17
2023-05-25T02:06:23.538Z,3.57
2023-05-25T02:07:23.605Z,3.35
2023-05-25T02:08:23.656Z,3.81
2023-05-25T02:09:23.767Z,4.07
2023-05-25T02:10:23.841Z,3.82
2023-05-25T02:11:23.875Z,4.01
2023-05-25T02:12:23.992Z,3.71
2023-05-25T02:13:24.094Z,3.90
2023-05-25T02:14:24.140Z,3.80
2023-05-25T02:15:24.213Z,3.63
2023-05-25T02:16:24.342Z,3.37
2023-05-25T02:17:24.327Z,3.62
2023-05-25T02:18:24.403Z,3.14
2023-05-25T02:19:24.485Z,3.65
2023-05-25T02:20:24.637Z,3.25
2023-05-25T02:21:24.635Z,3.74
2023-05-25T02:22:24.697Z,3.70
2023-05-25T02:23:24.754Z,3.73
2023-05-25T02:24:24.856Z,3.40
2023-05-25T02:25:24.884Z,3.81
2023-05-25T02:26:24.954Z,3.63
2023-05-25T02:27:25.028Z,3.22
2023-05-25T02:28:25.124Z,3.73
2023-05-25T02:29:25.200Z,3.45
2023-05-25T02:30:25.251Z,3.69
2023-05-25T02:31:25.386Z,3.26
2023-05-25T02:32:25.471Z,3.43
2023-05-25T02:33:25.445Z,3.62
2023-05-25T02:34:25.544Z,3.71
2023-05-25T02:35:25.585Z,3.39
2023-05-25T02:36:25.656Z,3.79
2023-05-25T02:37:25.970Z,3.52
2023-05-25T02:38:25.823Z,3.33
2023-05-25T02:39:25.880Z,3.30
2023-05-25T02:40:25.957Z,3.32
2023-05-25T02:41:26.025Z,4.15
2023-05-25T02:42:26.084Z,3.60
2023-05-25T02:43:26.178Z,3.40
2023-05-25T02:44:26.258Z,3.00
2023-05-25T02:45:26.330Z,3.52
2023-05-25T02:46:26.428Z,3.50
2023-05-25T02:47:26.506Z,3.81
2023-05-25T02:48:26.540Z,3.38
2023-05-25T02:49:26.598Z,3.67
2023-05-25T02:50:26.670Z,3.71
2023-05-25T02:51:26.740Z,2.92
2023-05-25T02:52:26.825Z,3.41
2023-05-25T02:53:26.889Z,3.25
2023-05-25T02:54:26.957Z,3.53
2023-05-25T02:55:27.007Z,3.53
2023-05-25T02:56:27.092Z,3.39
2023-05-25T02:57:27.163Z,3.50
2023-05-25T02:58:27.246Z,2.95
2023-05-25T02:59:27.294Z,3.34
2023-05-25T03:00:27.338Z,3.08
2023-05-25T03:01:27.508Z,3.46
2023-05-25T03:02:27.533Z,3.57
2023-05-25T03:03:27.727Z,3.21
2023-05-25T03:04:27.654Z,3.51
2023-05-25T03:05:27.711Z,3.63
2023-05-25T03:06:27.774Z,3.31
2023-05-25T03:07:27.826Z,3.18
2023-05-25T03:08:27.901Z,3.82
2023-05-25T03:09:27.961Z,3.46
2023-05-25T03:10:28.040Z,3.48
2023-05-25T03:11:28.066Z,3.44
2023-05-25T03:12:28.166Z,3.42
2023-05-25T03:13:28.200Z,3.55
2023-05-25T03:14:28.288Z,3.43
2023-05-25T03:15:28.309Z,3.52
2023-05-25T03:16:28.408Z,3.15
2023-05-25T03:17:28.485Z,3.96
2023-05-25T03:18:28.568Z,3.06
2023-05-25T03:19:28.581Z,3.29
2023-05-25T03:20:28.690Z,3.27
2023-05-25T03:21:28.748Z,3.21
2023-05-25T03:22:28.845Z,3.04
2023-05-25T03:23:28.913Z,3.09
2023-05-25T03:24:28.999Z,3.31
2023-05-25T03:25:29.062Z,3.17
2023-05-25T03:26:29.091Z,3.82
2023-05-25T03:27:29.156Z,3.14
2023-05-25T03:28:29.233Z,3.89
2023-05-25T03:29:29.342Z,3.26
2023-05-25T03:30:29.462Z,3.19
2023-05-25T03:31:29.497Z,3.20
2023-05-25T03:32:29.572Z,3.68
2023-05-25T03:33:29.625Z,3.45
2023-05-25T03:34:29.698Z,3.90
2023-05-25T03:35:29.766Z,2.95
2023-05-25T03:36:29.801Z,3.18
2023-05-25T03:37:29.882Z,3.32
2023-05-25T03:38:29.917Z,3.14
2023-05-25T03:39:29.986Z,2.81
2023-05-25T03:40:30.064Z,3.51
2023-05-25T03:41:30.159Z,3.86
2023-05-25T03:42:30.194Z,3.04
2023-05-25T03:43:30.247Z,3.26
2023-05-25T03:44:30.323Z,3.33
2023-05-25T03:45:30.403Z,3.30
2023-05-25T03:46:30.512Z,2.98
2023-05-25T03:47:30.608Z,3.40
2023-05-25T03:48:30.610Z,3.20
2023-05-25T03:49:30.691Z,3.50
2023-05-25T03:50:30.778Z,3.33
2023-05-25T03:51:30.828Z,3.67
2023-05-25T03:52:30.900Z,3.09
2023-05-25T03:53:30.986Z,3.27
2023-05-25T03:54:31.078Z,3.04
2023-05-25T03:55:31.165Z,3.16
2023-05-25T03:56:31.272Z,3.07
2023-05-25T03:57:31.319Z,3.32
2023-05-25T03:58:31.414Z,3.55
2023-05-25T03:59:31.452Z,3.53
2023-05-25T04:00:31.561Z,3.48
2023-05-25T04:01:31.621Z,3.29
2023-05-25T04:02:31.771Z,3.24
2023-05-25T04:03:31.999Z,3.52
2023-05-25T04:04:31.830Z,3.43
2023-05-25T04:05:31.888Z,3.41
2023-05-25T04:06:31.958Z,3.55
2023-05-25T04:07:32.029Z,3.15
2023-05-25T04:08:32.076Z,3.43
2023-05-25T04:09:32.162Z,3.11
2023-05-25T04:10:32.245Z,3.13
2023-05-25T04:11:32.287Z,3.15
2023-05-25T04:12:32.341Z,3.82
2023-05-25T04:13:32.434Z,3.36
2023-05-25T04:14:32.487Z,3.53
2023-05-25T04:15:32.569Z,3.08
2023-05-25T04:16:32.733Z,3.29
2023-05-25T04:17:32.720Z,3.25
2023-05-25T04:18:32.774Z,3.34
2023-05-25T04:19:32.818Z,3.26
2023-05-25T04:20:33.035Z,3.38
2023-05-25T04:21:32.985Z,3.62
2023-05-25T04:22:33.064Z,3.60
2023-05-25T04:23:33.139Z,2.98
2023-05-25T04:24:33.205Z,3.27
2023-05-25T04:25:33.261Z,3.34
2023-05-25T04:26:33.344Z,3.68
2023-05-25T04:27:33.405Z,3.24
2023-05-25T04:28:33.495Z,3.08
2023-05-25T04:29:33.589Z,3.32
2023-05-25T04:30:33.656Z,3.55
2023-05-25T04:31:33.766Z,3.34
2023-05-25T04:32:33.890Z,3.70
2023-05-25T04:33:33.892Z,3.36
2023-05-25T04:34:33.957Z,2.99
2023-05-25T04:35:34.065Z,3.48
2023-05-25T04:36:34.162Z,3.35
2023-05-25T04:37:34.234Z,3.37
2023-05-25T04:38:34.310Z,3.79
2023-05-25T04:39:34.388Z,2.84
2023-05-25T04:40:34.484Z,3.27
2023-05-25T04:41:34.544Z,3.05
2023-05-25T04:42:34.638Z,3.03
2023-05-25T04:43:34.702Z,2.95
2023-05-25T04:44:34.833Z,3.38
2023-05-25T04:45:34.868Z,3.43
2023-05-25T04:46:34.947Z,2.99
2023-05-25T04:47:35.036Z,3.09
2023-05-25T04:48:35.095Z,2.87
2023-05-25T04:49:35.141Z,2.88
2023-05-25T04:50:35.223Z,3.51
2023-05-25T04:51:36.015Z,2.81
2023-05-25T04:52:35.319Z,2.98
2023-05-25T04:53:35.411Z,3.32
2023-05-25T04:54:35.490Z,2.64
2023-05-25T04:55:35.563Z,3.06
2023-05-25T04:56:35.608Z,3.15
2023-05-25T04:57:35.697Z,3.39
2023-05-25T04:58:35.770Z,3.67
2023-05-25T04:59:35.842Z,3.23
2023-05-25T05:00:35.899Z,3.32
2023-05-25T05:01:43.520Z,3.34
2023-05-25T05:02:36.079Z,3.75
2023-05-25T05:03:36.098Z,3.70
2023-05-25T05:04:36.119Z,3.38
2023-05-25T05:05:36.139Z,3.69
2023-05-25T05:06:36.241Z,3.30
2023-05-25T05:07:36.297Z,3.23
2023-05-25T05:08:36.289Z,3.17
2023-05-25T05:09:36.310Z,3.55
2023-05-25T05:10:36.340Z,3.20
2023-05-25T05:11:36.432Z,3.02
2023-05-25T05:12:36.464Z,2.60
2023-05-25T05:13:36.518Z,3.21
2023-05-25T05:14:36.571Z,2.86
2023-05-25T05:15:36.584Z,3.03
2023-05-25T05:16:36.859Z,3.08
2023-05-25T05:17:37.297Z,3.45
2023-05-25T05:18:36.739Z,3.37
2023-05-25T05:19:36.800Z,3.71
2023-05-25T05:20:37.068Z,3.23
2023-05-25T05:21:36.813Z,3.24
2023-05-25T05:22:36.905Z,3.33
2023-05-25T05:23:36.916Z,2.89
2023-05-25T05:24:36.937Z,2.63
2023-05-25T05:25:37.034Z,3.29
2023-05-25T05:26:48.298Z,3.32
2023-05-25T05:27:38.147Z,3.09
2023-05-25T05:28:37.135Z,3.04
2023-05-25T05:29:37.193Z,3.31
2023-05-25T05:30:37.862Z,3.42
2023-05-25T05:31:37.355Z,2.60
2023-05-25T05:32:37.344Z,2.73
2023-05-25T05:33:37.399Z,2.86
2023-05-25T05:34:39.368Z,3.19
2023-05-25T05:35:37.435Z,2.97
2023-05-25T05:36:48.678Z,3.64
2023-05-25T05:37:38.503Z,3.40
2023-05-25T05:38:39.972Z,3.56
2023-05-25T05:39:37.708Z,4.14
2023-05-25T05:40:37.803Z,3.86
2023-05-25T05:41:37.913Z,4.25
2023-05-25T05:42:38.021Z,4.91
2023-05-25T05:43:38.052Z,5.59
2023-05-25T05:44:38.079Z,6.83
2023-05-25T05:45:45.581Z,5.87
2023-05-25T05:46:38.186Z,5.72
2023-05-25T05:47:38.306Z,5.18
2023-05-25T05:48:38.285Z,5.65
2023-05-25T05:49:38.337Z,4.65
2023-05-25T05:50:40.992Z,5.64
2023-05-25T05:51:38.448Z,5.54
2023-05-25T05:52:38.527Z,5.75
2023-05-25T05:53:38.889Z,5.63
2023-05-25T05:54:38.563Z,6.23
2023-05-25T05:55:38.615Z,5.35
2023-05-25T05:56:38.687Z,5.34
2023-05-25T05:57:38.737Z,5.14
2023-05-25T05:58:38.800Z,4.92
2023-05-25T05:59:38.913Z,4.70
2023-05-25T06:00:38.873Z,4.56
2023-05-25T06:01:38.945Z,4.72
2023-05-25T06:02:41.464Z,4.59
2023-05-25T06:03:38.999Z,4.85
2023-05-25T06:04:39.104Z,4.46
2023-05-25T06:05:39.194Z,4.32
2023-05-25T06:06:39.166Z,4.51
2023-05-25T06:07:39.205Z,4.92
2023-05-25T06:08:39.275Z,5.30
2023-05-25T06:09:39.325Z,4.66
2023-05-25T06:10:39.384Z,4.96
2023-05-25T06:11:39.517Z,5.03
2023-05-25T06:12:39.530Z,5.11
2023-05-25T06:13:40.086Z,4.69
2023-05-25T06:14:39.577Z,5.08
2023-05-25T06:15:42.790Z,5.07
2023-05-25T06:16:39.806Z,4.43
2023-05-25T06:17:40.864Z,4.81
2023-05-25T06:18:39.902Z,4.87
2023-05-25T06:19:40.897Z,4.63
2023-05-25T06:20:39.956Z,4.07
2023-05-25T06:21:39.988Z,4.43
2023-05-25T06:22:40.044Z,4.04
2023-05-25T06:23:40.101Z,3.95
2023-05-25T06:24:40.112Z,3.98
2023-05-25T06:26:22.899Z,3.77
2023-05-25T06:27:22.903Z,3.93
2023-05-25T06:28:22.951Z,3.69
2023-05-25T06:29:22.951Z,4.10
2023-05-25T06:30:22.943Z,3.71
2023-05-25T06:31:22.945Z,4.20
2023-05-25T06:32:22.904Z,4.36
2023-05-25T06:33:22.913Z,3.71
2023-05-25T06:34:23.067Z,4.03
2023-05-25T06:35:22.891Z,3.99
2023-05-25T06:36:22.880Z,4.20
2023-05-25T06:37:22.874Z,3.92
2023-05-25T06:38:22.861Z,3.58
2023-05-25T06:39:22.898Z,3.30
2023-05-25T06:40:22.867Z,3.58
2023-05-25T06:41:23.571Z,4.45
2023-05-25T06:42:22.856Z,4.21
2023-05-25T06:43:22.835Z,3.88
2023-05-25T06:44:23.084Z,3.43
2023-05-25T06:45:22.853Z,3.96
2023-05-25T06:46:22.953Z,3.89
2023-05-25T06:47:22.822Z,3.27
2023-05-25T06:48:22.766Z,3.15
2023-05-25T06:49:22.763Z,3.42
2023-05-25T06:50:22.778Z,3.34
2023-05-25T06:51:22.733Z,3.32
2023-05-25T06:52:22.746Z,3.14
2023-05-25T06:53:22.730Z,3.43
2023-05-25T06:54:23.107Z,3.26
2023-05-25T06:55:22.685Z,2.82
2023-05-25T06:56:22.655Z,3.30
2023-05-25T06:57:22.657Z,2.94
2023-05-25T06:58:22.656Z,3.70
2023-05-25T06:59:22.638Z,3.47
2023-05-25T07:00:22.661Z,2.95
2023-05-25T07:01:22.662Z,3.00
2023-05-25T07:02:22.708Z,3.26
2023-05-25T07:03:22.600Z,3.03
2023-05-25T07:04:22.612Z,2.88
2023-05-25T07:05:22.533Z,2.89
2023-05-25T07:06:22.520Z,2.89
2023-05-25T07:07:22.526Z,2.69
2023-05-25T07:08:22.500Z,2.43
2023-05-25T07:09:22.509Z,2.49
2023-05-25T07:10:22.438Z,2.81
2023-05-25T07:11:22.451Z,2.72
2023-05-25T07:12:22.488Z,2.48
2023-05-25T07:13:22.437Z,2.81
2023-05-25T07:14:22.483Z,2.61
2023-05-25T07:15:22.587Z,2.57
2023-05-25T07:16:22.564Z,2.14
2023-05-25T07:17:22.633Z,2.67
2023-05-25T07:18:22.618Z,3.30
2023-05-25T07:19:22.670Z,3.17
2023-05-25T07:20:22.660Z,2.88
2023-05-25T07:21:22.676Z,2.47
2023-05-25T07:22:23.624Z,2.83
2023-05-25T07:23:22.750Z,2.71
2023-05-25T07:24:23.111Z,3.17
2023-05-25T07:25:22.824Z,3.13
2023-05-25T07:26:22.886Z,3.48
2023-05-25T07:27:22.875Z,3.22
2023-05-25T07:28:22.946Z,3.06
2023-05-25T07:29:23.113Z,3.20
2023-05-25T07:30:23.026Z,2.90
2023-05-25T07:31:23.097Z,2.80
2023-05-25T07:32:23.152Z,2.94
2023-05-25T07:33:23.125Z,2.50
2023-05-25T07:34:23.857Z,3.37
2023-05-25T07:35:23.190Z,2.57
2023-05-25T07:36:23.236Z,3.19
2023-05-25T07:37:23.248Z,3.21
2023-05-25T07:38:23.323Z,3.03
2023-05-25T07:39:23.360Z,3.33
2023-05-25T07:40:23.544Z,2.67
2023-05-25T07:41:23.430Z,2.65
2023-05-25T07:42:23.520Z,3.37
2023-05-25T07:43:23.508Z,2.98
2023-05-25T07:44:23.532Z,3.09
2023-05-25T07:45:23.575Z,4.69
2023-05-25T07:46:23.624Z,3.56
2023-05-25T07:47:23.679Z,3.51
2023-05-25T07:48:23.727Z,3.45
2023-05-25T07:49:23.750Z,3.47
2023-05-25T07:50:23.923Z,3.85
2023-05-25T07:51:23.795Z,3.24
2023-05-25T07:52:23.817Z,3.65
2023-05-25T07:53:23.897Z,3.95
2023-05-25T07:54:23.933Z,3.67
2023-05-25T07:55:23.851Z,3.82
2023-05-25T07:56:23.906Z,3.52
2023-05-25T07:57:23.888Z,2.97
2023-05-25T07:58:23.960Z,3.41
2023-05-25T07:59:23.947Z,3.60
2023-05-25T08:00:23.969Z,3.05
2023-05-25T08:01:26.269Z,3.42
2023-05-25T08:02:24.029Z,3.17
2023-05-25T08:03:39.969Z,3.03
2023-05-25T08:04:25.112Z,2.95
2023-05-25T08:05:23.995Z,2.81
2023-05-25T08:06:24.025Z,2.80
2023-05-25T08:07:23.953Z,3.28
2023-05-25T08:08:23.942Z,2.86
2023-05-25T08:09:23.921Z,2.67
2023-05-25T08:10:23.936Z,2.47
2023-05-25T08:11:23.958Z,2.90
2023-05-25T08:12:38.586Z,2.55
2023-05-25T08:13:24.944Z,3.09
2023-05-25T08:14:23.969Z,2.56
2023-05-25T08:15:23.924Z,2.20
2023-05-25T08:16:24.055Z,2.17
2023-05-25T08:17:23.982Z,2.65
2023-05-25T08:18:23.897Z,2.22
2023-05-25T08:19:23.886Z,2.32
2023-05-25T08:20:23.919Z,2.19
2023-05-25T08:21:23.891Z,2.38
2023-05-25T08:22:23.863Z,2.53
2023-05-25T08:23:23.908Z,2.22
2023-05-25T08:24:23.866Z,2.46
2023-05-25T08:25:23.899Z,2.26
2023-05-25T08:26:41.250Z,2.33
2023-05-25T08:27:24.865Z,2.40
2023-05-25T08:28:23.899Z,2.04
2023-05-25T08:29:23.915Z,1.96
2023-05-25T08:30:24.158Z,2.71
2023-05-25T08:31:23.927Z,2.50
2023-05-25T08:32:24.068Z,2.43
2023-05-25T08:33:25.867Z,2.81
2023-05-25T08:34:23.893Z,2.45
2023-05-25T08:35:23.896Z,1.81
2023-05-25T08:36:23.872Z,1.90
2023-05-25T08:37:23.878Z,2.37
2023-05-25T08:38:23.855Z,2.38
2023-05-25T08:39:23.887Z,1.83
2023-05-25T08:40:23.897Z,2.39
2023-05-25T08:41:23.838Z,2.41
2023-05-25T08:42:23.889Z,1.98
2023-05-25T08:43:23.895Z,2.07
2023-05-25T08:44:23.921Z,2.27
2023-05-25T08:45:34.910Z,1.98
2023-05-25T08:46:24.883Z,1.78
2023-05-25T08:47:23.917Z,2.51
2023-05-25T08:48:39.888Z,2.60
2023-05-25T08:49:24.904Z,2.05
2023-05-25T08:50:24.169Z,2.71
2023-05-25T08:51:23.784Z,2.38
2023-05-25T08:52:23.811Z,2.11
2023-05-25T08:53:23.830Z,2.40
2023-05-25T08:54:23.778Z,1.97
2023-05-25T08:55:23.836Z,2.41
2023-05-25T08:56:23.758Z,2.38
2023-05-25T08:57:23.753Z,1.91
2023-05-25T08:58:23.727Z,1.91
2023-05-25T08:59:23.746Z,2.00
2023-05-25T09:00:24.184Z,1.99
2023-05-25T09:01:23.798Z,1.86
2023-05-25T09:02:23.788Z,2.02
2023-05-25T09:03:23.853Z,1.91
2023-05-25T09:04:23.774Z,1.94
2023-05-25T09:05:24.004Z,2.30
2023-05-25T09:06:23.797Z,2.17
2023-05-25T09:07:23.858Z,2.11
2023-05-25T09:08:23.931Z,1.78
2023-05-25T09:09:23.890Z,1.65
2023-05-25T09:10:23.967Z,2.06
2023-05-25T09:11:37.430Z,2.07
2023-05-25T09:12:24.912Z,1.88
2023-05-25T09:13:23.936Z,2.20
2023-05-25T09:14:23.962Z,1.76
2023-05-25T09:15:24.588Z,2.02
2023-05-25T09:16:24.678Z,2.01
2023-05-25T09:17:23.939Z,2.47
2023-05-25T09:18:23.927Z,1.68
2023-05-25T09:19:23.917Z,2.18
2023-05-25T09:20:24.006Z,2.16
2023-05-25T09:21:23.918Z,1.59
2023-05-25T09:22:23.871Z,1.77
2023-05-25T09:23:23.904Z,2.15
2023-05-25T09:24:23.835Z,2.30
2023-05-25T09:25:23.818Z,1.94
2023-05-25T09:26:24.115Z,1.80
2023-05-25T09:27:23.840Z,2.06
2023-05-25T09:28:27.296Z,2.32
2023-05-25T09:29:23.785Z,2.34
2023-05-25T09:30:23.785Z,1.73
2023-05-25T09:31:24.246Z,1.92
2023-05-25T09:32:23.803Z,2.37
2023-05-25T09:33:23.775Z,2.48
2023-05-25T09:34:23.720Z,1.91
2023-05-25T09:35:23.691Z,2.73
2023-05-25T09:36:23.765Z,3.39
2023-05-25T09:37:23.798Z,3.41
2023-05-25T09:38:23.876Z,3.30
2023-05-25T09:39:23.786Z,2.94
2023-05-25T09:40:23.629Z,2.32
2023-05-25T09:41:23.698Z,2.61
2023-05-25T09:42:23.598Z,2.58
2023-05-25T09:43:39.576Z,2.74
2023-05-25T09:44:24.490Z,2.88
2023-05-25T09:45:23.486Z,2.40
2023-05-25T09:46:23.518Z,2.78
2023-05-25T09:47:23.530Z,2.44
2023-05-25T09:48:23.448Z,2.72
2023-05-25T09:49:23.459Z,2.42
2023-05-25T09:50:23.413Z,2.68
2023-05-25T09:51:23.403Z,2.67
2023-05-25T09:52:23.372Z,2.43
2023-05-25T09:53:23.338Z,2.79
2023-05-25T09:54:23.374Z,1.95
2023-05-25T09:55:23.402Z,2.25
2023-05-25T09:56:23.704Z,2.49
2023-05-25T09:57:23.453Z,2.21
2023-05-25T09:58:23.463Z,2.49
2023-05-25T09:59:24.040Z,1.92
2023-05-25T10:00:23.465Z,2.41
2023-05-25T10:01:23.594Z,2.79
2023-05-25T10:02:23.606Z,2.29
2023-05-25T10:03:23.516Z,2.33
2023-05-25T10:04:23.563Z,2.17
2023-05-25T10:05:23.563Z,1.95
2023-05-25T10:06:23.508Z,1.85
2023-05-25T10:07:23.562Z,1.74
2023-05-25T10:08:23.530Z,1.83
2023-05-25T10:09:23.517Z,2.12
2023-05-25T10:10:23.539Z,1.95
2023-05-25T10:11:23.535Z,2.26
2023-05-25T10:12:23.716Z,1.94
2023-05-25T10:13:23.557Z,2.46
2023-05-25T10:14:25.451Z,2.13
2023-05-25T10:15:23.830Z,1.86
2023-05-25T10:16:23.490Z,1.98
2023-05-25T10:17:25.272Z,1.89
2023-05-25T10:18:24.656Z,1.91
2023-05-25T10:19:23.788Z,2.30
2023-05-25T10:20:23.447Z,2.05
2023-05-25T10:21:23.381Z,2.01
2023-05-25T10:22:23.676Z,1.80
2023-05-25T10:23:23.303Z,2.21
2023-05-25T10:24:23.268Z,2.06
2023-05-25T10:25:23.274Z,1.69
2023-05-25T10:26:23.212Z,2.11
2023-05-25T10:27:27.632Z,1.76
2023-05-25T10:28:23.168Z,1.53
2023-05-25T10:29:23.150Z,1.57
2023-05-25T10:30:23.121Z,1.98
2023-05-25T10:31:23.124Z,2.10
2023-05-25T10:32:23.129Z,1.94
2023-05-25T10:33:23.016Z,2.07
2023-05-25T10:34:22.978Z,2.43
2023-05-25T10:35:22.969Z,2.46
2023-05-25T10:36:22.948Z,2.47
2023-05-25T10:37:23.164Z,2.07
2023-05-25T10:38:22.874Z,2.78
2023-05-25T10:39:22.869Z,3.26
2023-05-25T10:40:22.844Z,3.22
2023-05-25T10:41:22.831Z,3.18
2023-05-25T10:42:23.174Z,2.88
2023-05-25T10:43:22.795Z,3.38
2023-05-25T10:44:22.725Z,2.83
2023-05-25T10:45:22.709Z,3.20
2023-05-25T10:46:22.843Z,4.02
2023-05-25T10:47:22.768Z,3.98
2023-05-25T10:48:22.656Z,4.04
2023-05-25T10:49:22.659Z,4.15
2023-05-25T10:50:22.579Z,4.49
2023-05-25T10:51:22.651Z,4.03
2023-05-25T10:52:22.593Z,4.38
2023-05-25T10:53:22.550Z,4.12
2023-05-25T10:54:22.519Z,3.52
2023-05-25T10:55:22.559Z,4.00
2023-05-25T10:56:22.571Z,3.82
2023-05-25T10:57:22.535Z,3.34
2023-05-25T10:58:22.541Z,3.72
2023-05-25T10:59:22.523Z,3.50
2023-05-25T11:00:22.553Z,3.72
2023-05-25T11:01:22.530Z,3.82
2023-05-25T11:02:22.523Z,2.95
2023-05-25T11:03:22.513Z,3.29
2023-05-25T11:04:22.584Z,3.36
2023-05-25T11:05:22.494Z,3.12
2023-05-25T11:06:22.512Z,3.27
2023-05-25T11:07:22.474Z,2.98
2023-05-25T11:08:22.472Z,2.87
2023-05-25T11:09:22.485Z,3.03
2023-05-25T11:10:22.574Z,3.08
2023-05-25T11:11:22.508Z,2.64
2023-05-25T11:12:22.682Z,2.86
2023-05-25T11:13:22.484Z,3.05
2023-05-25T11:14:22.487Z,3.26
2023-05-25T11:15:22.511Z,3.35
2023-05-25T11:16:22.554Z,2.49
2023-05-25T11:17:22.547Z,3.19
2023-05-25T11:18:22.508Z,2.41
2023-05-25T11:19:22.499Z,2.50
2023-05-25T11:20:22.564Z,2.80
2023-05-25T11:21:22.540Z,2.87
2023-05-25T11:22:22.857Z,2.26
2023-05-25T11:23:22.546Z,2.45
2023-05-25T11:24:22.577Z,2.85
2023-05-25T11:25:22.529Z,2.28
2023-05-25T11:26:22.539Z,2.77
2023-05-25T11:27:22.583Z,2.10
2023-05-25T11:28:22.550Z,2.65
2023-05-25T11:29:22.546Z,3.04
2023-05-25T11:30:22.539Z,2.48
2023-05-25T11:31:22.555Z,2.94
2023-05-25T11:32:22.684Z,2.85
2023-05-25T11:33:22.706Z,2.46
2023-05-25T11:34:22.589Z,2.11
2023-05-25T11:35:22.583Z,2.34
2023-05-25T11:36:22.596Z,2.71
2023-05-25T11:37:22.600Z,3.60
2023-05-25T11:38:22.618Z,2.71
2023-05-25T11:39:23.494Z,2.35
2023-05-25T11:40:22.586Z,2.98
2023-05-25T11:41:22.577Z,2.87
2023-05-25T11:42:22.592Z,2.23
2023-05-25T11:43:22.595Z,2.50
2023-05-25T11:44:22.593Z,2.26
2023-05-25T11:45:22.568Z,2.90
2023-05-25T11:46:22.579Z,2.37
2023-05-25T11:47:22.656Z,2.81
2023-05-25T11:48:22.602Z,2.40
2023-05-25T11:49:22.547Z,2.56
2023-05-25T11:50:22.618Z,2.45
2023-05-25T11:51:22.583Z,2.61
2023-05-25T11:52:22.568Z,2.34
2023-05-25T11:53:22.594Z,2.62
2023-05-25T11:54:22.644Z,2.29
2023-05-25T11:55:22.621Z,2.61
2023-05-25T11:56:34.349Z,1.99
2023-05-25T11:57:23.616Z,2.82
2023-05-25T11:58:22.587Z,2.79
2023-05-25T11:59:24.050Z,2.70
2023-05-25T12:00:22.500Z,2.61
2023-05-25T12:01:22.509Z,2.54
2023-05-25T12:02:22.434Z,2.44
2023-05-25T12:03:22.483Z,2.40
2023-05-25T12:04:24.016Z,2.22
2023-05-25T12:05:22.412Z,2.45
2023-05-25T12:06:22.371Z,2.45
2023-05-25T12:07:22.309Z,2.44
2023-05-25T12:08:22.266Z,2.23
2023-05-25T12:09:22.246Z,2.53
2023-05-25T12:10:22.214Z,3.13
2023-05-25T12:11:22.198Z,2.61
2023-05-25T12:12:22.193Z,2.38
2023-05-25T12:13:22.122Z,2.41
2023-05-25T12:14:22.099Z,2.78
2023-05-25T12:15:22.149Z,2.16
2023-05-25T12:16:22.106Z,2.73
2023-05-25T12:17:22.150Z,2.08
2023-05-25T12:18:22.114Z,2.29
2023-05-25T12:19:22.091Z,2.18
2023-05-25T12:20:22.264Z,2.92
2023-05-25T12:21:22.126Z,2.35
2023-05-25T12:22:22.128Z,2.68
2023-05-25T12:23:22.180Z,2.68
2023-05-25T12:24:22.120Z,2.22
2023-05-25T12:25:22.164Z,2.69
2023-05-25T12:26:22.131Z,2.41
2023-05-25T12:27:22.114Z,2.32
2023-05-25T12:28:22.135Z,2.47
2023-05-25T12:29:22.097Z,2.73
2023-05-25T12:30:22.100Z,2.88
2023-05-25T12:31:22.170Z,2.66
2023-05-25T12:32:22.139Z,2.76
2023-05-25T12:33:22.078Z,2.48
2023-05-25T12:34:22.104Z,2.33
2023-05-25T12:35:22.048Z,3.03
2023-05-25T12:36:22.049Z,2.60
2023-05-25T12:37:22.046Z,2.58
2023-05-25T12:38:22.192Z,2.27
2023-05-25T12:39:23.895Z,2.59
2023-05-25T12:40:22.104Z,2.54
2023-05-25T12:41:22.087Z,2.64
2023-05-25T12:42:22.070Z,2.45
2023-05-25T12:43:22.066Z,2.55
2023-05-25T12:44:22.069Z,2.21
2023-05-25T12:45:22.034Z,2.47
2023-05-25T12:46:22.080Z,2.48
2023-05-25T12:47:22.051Z,2.81
2023-05-25T12:48:22.067Z,2.30
2023-05-25T12:49:22.017Z,2.89
2023-05-25T12:50:22.031Z,2.41
2023-05-25T12:51:22.031Z,3.69
2023-05-25T12:52:22.031Z,2.75
2023-05-25T12:53:22.043Z,2.62
2023-05-25T12:54:22.037Z,2.69
2023-05-25T12:55:22.026Z,2.83
2023-05-25T12:56:22.019Z,3.12
2023-05-25T12:57:22.004Z,2.70
2023-05-25T12:58:22.118Z,2.73
2023-05-25T12:59:21.994Z,3.02
2023-05-25T13:00:22.030Z,3.47
2023-05-25T13:01:22.032Z,3.02
2023-05-25T13:02:22.063Z,2.50
2023-05-25T13:03:21.954Z,2.84
2023-05-25T13:04:21.974Z,2.64
2023-05-25T13:05:22.035Z,2.53
2023-05-25T13:06:21.928Z,3.19
2023-05-25T13:07:21.934Z,2.73
2023-05-25T13:08:21.932Z,2.75
2023-05-25T13:09:21.948Z,2.64
2023-05-25T13:10:22.027Z,2.41
2023-05-25T13:11:21.912Z,2.62
2023-05-25T13:12:21.951Z,2.66
2023-05-25T13:13:21.930Z,2.33
2023-05-25T13:14:21.917Z,2.47
2023-05-25T13:15:21.942Z,3.05
2023-05-25T13:16:21.852Z,2.97
2023-05-25T13:17:21.907Z,2.32
2023-05-25T13:18:22.536Z,2.67
2023-05-25T13:19:21.921Z,2.81